Aeroporto :
LOGIN :

Iscrizione | Disclaimer

   EN    FR    IT 

 










Sommario :    VFR   VFR Marginale   IFR   IFR Intensivo   IFR Molto Intensivo
Visibilità : 
Base nubi : 
>= 8 km
>= 3000ft
5 / 8 km
1000 / 3000 ft
1500m / 5 km
500 / 1000 ft
800 / 1500m
200 / 500 ft
< 800m
< 200 ft
Simboli :   Temporali  Nebbia  Neve Forte  Precipitazioni Forti  Vento > 20 kt
SIGMETs :   Varie  Temporali  Ghiacco  Turbolenza  Onda orograficha  Ceneri Vulcaniche







- Altitudine del aeroporto : 146 ft
- Codice IATA : RKE


EKRK - Roskilde Tune

ULTIMO METAR :
  • 161850Z AUTO 26004KT 9999 NCD 18/13 Q1019

METARs OBSOLETI :
  • 161820Z AUTO 29004KT 9999 R11/1400U R29/P1500N BKN210/// 19/13 Q1019
  • 161750Z AUTO 29005KT 9999 BKN150/// 19/12 Q1020
  • 161720Z AUTO 30006KT 9999 FEW140/// 19/12 Q1019
  • 161650Z AUTO 30006KT 9999 NCD 19/13 Q1019
  • 161620Z AUTO 30007KT 9999 FEW140/// 19/12 Q1019

TAF TAF EKRK
Valido dal 16 a 18 ore il 17 a 03 ore UTC


161727Z 1618/1703 28006KT 9999 FEW030
Nessun NOTAM noto per questo aeroporto.



MetMap, La meteo Aeronautica in un colpo d'occhio ! - Copyright ORBIFLY Dicembre 2007 - Disclaimer

ORBIFLY MET'MAP TEAM :

Programmazione e sviluppo : Alexandra Zaïnal
Concezione e sviluppo : Baudouin d'Aumeries
Co-Programmazione e sviluppo : Marc-Olivier Méhu
Supporto tecnico e logistico : Manuel Goepfert
Aiuto per la traduzione : Arnaldo La Scala

Contatto : metmap@orbifly.com




FONTI E CREDITI :

   NOAA